Terminal Aerodrome Forecast
Issued by NWS

Home | Current Version | Previous Version | Text Only | Print | Product List | Glossary On
Versions: 1 2 3 4 5 6 7 8 9 10 11 12 13 14 15 16
000
FTAK31 PAJN 231700
TAFAWG
TAF
PAWG 231720Z 2318/2418 11004KT P6SM VCSH FEW005 SCT040 BKN060
     FM232100 31006KT P6SM VCSH SCT035 BKN045
     FM240400 14005KT P6SM SCT040
      AMD LTD TO CLD VIS AND WIND 2406/2415=

USA.gov is the U.S. government's official web portal to all federal, state and local government web resources and services.